Time;durP1;ratioP1;P1;durP2;ratioP2;P2;SDS_P1;SDS_P2;PMS_P1;PMS_P2;Temp;Humidity;BMP_temperature;BMP_pressure;BME280_temperature;BME280_humidity;BME280_pressure;Samples;Min_cycle;Max_cycle;Signal;HPM_P1;HPM_P2
2023/08/09 00:01:09;;;;;;;8.45;7.32;;;;;;;13.71;100.00;101285.16;6254328;22;20016;-75
2023/08/09 00:03:36;;;;;;;7.60;6.90;;;;;;;13.69;100.00;101282.94;6280224;22;20527;-75
2023/08/09 00:06:03;;;;;;;8.43;7.68;;;;;;;13.66;100.00;101278.47;6281474;22;20111;-76
2023/08/09 00:08:30;;;;;;;8.07;7.38;;;;;;;13.67;100.00;101287.25;6281077;22;20353;-76
2023/08/09 00:10:56;;;;;;;8.98;8.05;;;;;;;13.63;100.00;101279.38;6281484;22;20020;-76
2023/08/09 00:13:24;;;;;;;8.95;8.05;;;;;;;13.62;100.00;101271.78;6280717;22;20020;-75
2023/08/09 00:15:51;;;;;;;9.43;8.00;;;;;;;13.60;100.00;101268.81;6281705;22;20095;-75
2023/08/09 00:18:19;;;;;;;9.65;8.23;;;;;;;13.56;100.00;101274.34;6280652;22;20460;-76
2023/08/09 00:20:45;;;;;;;8.27;7.57;;;;;;;13.53;100.00;101280.59;6281603;22;20008;-75
2023/08/09 00:23:13;;;;;;;8.45;7.75;;;;;;;13.50;100.00;101278.06;6228839;22;20417;-75
2023/08/09 00:25:41;;;;;;;8.20;7.40;;;;;;;13.48;100.00;101278.50;6280654;22;20012;-75
2023/08/09 00:28:08;;;;;;;8.80;7.90;;;;;;;13.46;100.00;101280.13;6280738;22;20016;-76
2023/08/09 00:30:36;;;;;;;9.68;7.82;;;;;;;13.43;100.00;101281.78;6280773;22;20023;-75
2023/08/09 00:33:04;;;;;;;8.30;7.43;;;;;;;13.42;100.00;101276.88;6253303;22;20078;-75
2023/08/09 00:35:31;;;;;;;8.05;7.30;;;;;;;13.39;100.00;101278.50;6253290;22;20020;-75
2023/08/09 00:37:57;;;;;;;15.02;8.65;;;;;;;13.35;100.00;101284.00;6254095;22;20016;-76
2023/08/09 00:40:24;;;;;;;8.57;7.57;;;;;;;13.32;100.00;101292.16;6253469;22;20051;-75
2023/08/09 00:42:51;;;;;;;8.85;7.88;;;;;;;13.30;100.00;101294.53;6281499;22;20375;-75
2023/08/09 00:45:18;;;;;;;12.18;7.80;;;;;;;13.28;100.00;101296.91;6253386;22;20022;-76
2023/08/09 00:47:45;;;;;;;8.35;7.55;;;;;;;13.25;100.00;101300.47;6280418;22;20016;-75
2023/08/09 00:50:11;;;;;;;8.60;7.80;;;;;;;13.22;100.00;101298.66;6253704;22;20055;-75
2023/08/09 00:52:38;;;;;;;8.00;7.25;;;;;;;13.22;100.00;101304.03;6227683;22;20086;-75
2023/08/09 00:55:06;;;;;;;8.50;7.63;;;;;;;13.17;100.00;101302.69;6253880;22;20017;-75
2023/08/09 00:57:33;;;;;;;8.88;7.95;;;;;;;13.14;100.00;101306.22;6252769;22;20020;-75
2023/08/09 01:00:00;;;;;;;8.63;7.82;;;;;;;13.09;100.00;101301.47;6253358;22;20477;-75
2023/08/09 01:02:27;;;;;;;8.70;7.80;;;;;;;13.08;100.00;101309.94;6279786;22;20035;-75
2023/08/09 01:04:55;;;;;;;8.23;7.43;;;;;;;13.03;100.00;101303.97;6253399;22;20017;-74
2023/08/09 01:07:35;;;;;;;8.30;7.50;;;;;;;13.03;100.00;101308.56;6253052;22;20016;-75
2023/08/09 01:10:13;;;;;;;8.73;7.28;;;;;;;12.98;100.00;101301.13;6228682;22;20020;-75
2023/08/09 01:12:45;;;;;;;9.07;7.55;;;;;;;12.94;100.00;101298.59;6253047;22;20422;-75
2023/08/09 01:15:15;;;;;;;9.90;8.38;;;;;;;12.92;100.00;101297.56;6280351;22;20016;-75
2023/08/09 01:17:47;;;;;;;10.07;8.63;;;;;;;12.91;100.00;101298.75;6253206;22;20342;-75
2023/08/09 01:20:16;;;;;;;9.63;8.63;;;;;;;12.90;100.00;101299.91;6254091;22;20005;-75
2023/08/09 01:22:58;;;;;;;8.90;8.00;;;;;;;12.88;100.00;101296.94;6227942;22;20016;-75
2023/08/09 01:25:25;;;;;;;;;;;;;;;12.84;100.00;101299.75;6280886;22;20012;-75
2023/08/09 01:27:52;;;;;;;10.05;8.45;;;;;;;12.82;100.00;101296.03;6280986;22;19919;-75
2023/08/09 01:30:18;;;;;;;9.18;8.15;;;;;;;12.76;100.00;101301.25;6279761;22;20016;-76
2023/08/09 01:32:46;;;;;;;10.63;8.48;;;;;;;12.74;100.00;101308.94;6253456;22;20027;-76
2023/08/09 01:35:13;;;;;;;9.13;8.23;;;;;;;12.72;100.00;101302.56;6227640;22;20508;-76
2023/08/09 01:37:46;;;;;;;8.10;7.30;;;;;;;12.69;100.00;101307.59;6252757;22;20022;-75
2023/08/09 01:40:16;;;;;;;8.60;7.72;;;;;;;12.66;100.00;101307.72;6280747;22;20028;-76
2023/08/09 01:42:43;;;;;;;7.75;7.05;;;;;;;12.57;100.00;101302.34;6280472;22;20012;-75
2023/08/09 01:45:12;;;;;;;11.80;7.53;;;;;;;12.55;100.00;101297.44;6252938;22;20442;-75
2023/08/09 01:47:41;;;;;;;7.93;7.13;;;;;;;12.56;100.00;101303.53;6280140;22;20095;-75
2023/08/09 01:50:22;;;;;;;8.40;7.57;;;;;;;12.52;100.00;101314.34;6253858;22;20047;-75
2023/08/09 01:52:55;;;;;;;9.55;7.85;;;;;;;12.49;100.00;101314.47;6253015;22;20024;-75
2023/08/09 01:55:25;;;;;;;9.40;7.75;;;;;;;12.45;100.00;101322.59;6253497;22;20012;-75
2023/08/09 01:57:52;;;;;;;8.27;7.45;;;;;;;12.43;100.00;101321.56;6253278;22;20012;-75
2023/08/09 02:00:20;;;;;;;7.93;6.80;;;;;;;12.43;100.00;101316.22;6252090;22;20115;-75
2023/08/09 02:02:51;;;;;;;8.15;7.32;;;;;;;12.41;100.00;101316.66;6280783;22;20012;-75
2023/08/09 02:05:19;;;;;;;7.25;6.40;;;;;;;12.41;100.00;101323.91;6253466;22;20021;-76
2023/08/09 02:07:46;;;;;;;8.65;7.32;;;;;;;12.37;100.00;101332.06;6253444;22;20026;-75
2023/08/09 02:10:16;;;;;;;8.95;7.22;;;;;;;12.35;100.00;101331.78;6253362;22;20024;-75
2023/08/09 02:12:49;;;;;;;7.50;6.80;;;;;;;12.32;100.00;101327.31;6280262;22;20019;-75
2023/08/09 02:15:16;;;;;;;7.55;6.80;;;;;;;12.32;100.00;101329.97;6280037;22;20465;-76
2023/08/09 02:17:44;;;;;;;9.00;7.13;;;;;;;12.31;100.00;101328.47;6280230;22;20501;-76
2023/08/09 02:20:11;;;;;;;7.82;6.88;;;;;;;12.29;100.00;101334.25;6252873;22;20099;-75
2023/08/09 02:22:39;;;;;;;7.65;6.90;;;;;;;12.32;100.00;101338.72;6252495;22;20035;-75
2023/08/09 02:25:07;;;;;;;7.50;6.70;;;;;;;12.34;100.00;101336.38;6253263;22;20091;-75
2023/08/09 02:27:34;;;;;;;8.10;6.80;;;;;;;12.38;100.00;101348.84;6226436;22;20108;-75
2023/08/09 02:30:06;;;;;;;7.85;7.07;;;;;;;12.40;100.00;101346.44;6280351;22;20016;-75
2023/08/09 02:32:33;;;;;;;;;;;;;;;12.42;100.00;101354.78;6280681;22;20012;-75
2023/08/09 02:35:00;;;;;;;10.07;7.22;;;;;;;12.43;100.00;101353.59;6280704;22;19921;-75
2023/08/09 02:37:27;;;;;;;10.48;8.70;;;;;;;12.43;100.00;101353.59;6279818;22;20016;-76
2023/08/09 02:39:54;;;;;;;8.70;7.38;;;;;;;12.44;100.00;101355.09;6280550;22;20020;-75
2023/08/09 02:42:21;;;;;;;13.38;8.18;;;;;;;12.43;100.00;101349.00;6251697;22;20024;-75
2023/08/09 02:44:48;;;;;;;11.52;8.43;;;;;;;12.43;100.00;101349.00;6253347;22;20016;-75
2023/08/09 02:47:14;;;;;;;11.77;7.72;;;;;;;12.44;100.00;101344.41;6280346;22;20012;-76
2023/08/09 02:49:41;;;;;;;8.38;7.57;;;;;;;12.44;100.00;101358.50;6279282;22;20460;-75
2023/08/09 02:52:08;;;;;;;8.38;7.55;;;;;;;12.43;100.00;101362.34;6280151;22;20021;-75
2023/08/09 02:54:35;;;;;;;19.35;7.65;;;;;;;12.44;100.00;101357.75;6279884;22;20472;-76
2023/08/09 02:57:02;;;;;;;10.63;7.60;;;;;;;12.43;100.00;101366.94;6252369;22;20396;-76
2023/08/09 02:59:29;;;;;;;24.05;7.57;;;;;;;12.44;100.00;101357.75;6279762;22;20051;-75
2023/08/09 03:01:56;;;;;;;13.90;7.72;;;;;;;12.43;100.00;101366.94;6253108;22;20020;-75
2023/08/09 03:04:22;;;;;;;10.25;7.07;;;;;;;12.43;100.00;101370.34;6252197;22;20037;-75
2023/08/09 03:06:49;;;;;;;8.32;7.53;;;;;;;12.43;100.00;101369.63;6253627;22;20023;-75
2023/08/09 03:09:16;;;;;;;9.35;7.05;;;;;;;12.44;100.00;101355.09;6280490;22;20016;-76
2023/08/09 03:11:43;;;;;;;21.65;7.43;;;;;;;12.43;100.00;101370.34;6226615;22;20027;-75
2023/08/09 03:14:13;;;;;;;9.80;7.20;;;;;;;12.43;100.00;101361.59;6252748;22;20387;-76
2023/08/09 03:16:41;;;;;;;11.13;7.07;;;;;;;12.42;100.00;101373.47;6252035;22;20477;-76
2023/08/09 03:19:08;;;;;;;18.42;7.35;;;;;;;12.41;100.00;101370.03;6252924;22;20017;-76
2023/08/09 03:21:36;;;;;;;8.40;7.00;;;;;;;12.42;100.00;101371.53;6251825;22;20027;-75
2023/08/09 03:24:03;;;;;;;12.15;7.18;;;;;;;12.42;100.00;101384.16;6252970;22;20048;-76
2023/08/09 03:26:29;;;;;;;8.02;7.18;;;;;;;12.41;100.00;101380.72;6251316;22;20098;-75
2023/08/09 03:28:58;;;;;;;14.15;6.47;;;;;;;12.40;100.00;101381.16;6280266;22;20016;-75
2023/08/09 03:31:24;;;;;;;8.02;6.60;;;;;;;12.40;100.00;101384.56;6251897;22;20016;-75
2023/08/09 03:33:52;;;;;;;13.40;6.32;;;;;;;12.41;100.00;101388.00;6227543;22;20047;-75
2023/08/09 03:36:20;;;;;;;17.27;6.30;;;;;;;12.39;100.00;101385.78;6251703;22;20016;-75
2023/08/09 03:38:46;;;;;;;23.05;6.32;;;;;;;12.40;100.00;101381.16;6252596;22;20032;-75
2023/08/09 03:41:13;;;;;;;28.63;6.25;;;;;;;12.39;100.00;101391.13;6251886;22;20015;-75
2023/08/09 03:43:40;;;;;;;9.85;6.15;;;;;;;12.39;100.00;101385.03;6251631;22;20023;-75
2023/08/09 03:46:07;;;;;;;22.30;6.18;;;;;;;12.40;100.00;101391.84;6252765;22;20039;-76
2023/08/09 03:48:34;;;;;;;14.10;6.10;;;;;;;12.38;100.00;101400.31;6279328;22;20027;-75
2023/08/09 03:51:01;;;;;;;30.90;6.35;;;;;;;12.36;100.00;101400.00;6252784;22;20445;-75
2023/08/09 03:53:28;;;;;;;10.63;5.72;;;;;;;12.35;100.00;101409.19;6278829;22;20016;-75
2023/08/09 03:55:54;;;;;;;13.88;5.63;;;;;;;12.36;100.00;101408.00;6279387;22;20450;-75
2023/08/09 03:58:21;;;;;;;11.88;5.72;;;;;;;12.35;100.00;101417.94;6251708;22;20108;-75
2023/08/09 04:00:48;;;;;;;14.27;5.63;;;;;;;12.36;100.00;101413.34;6279876;22;20012;-75
2023/08/09 04:03:16;;;;;;;48.20;6.63;;;;;;;12.33;100.00;101425.66;6281196;22;20468;-75
2023/08/09 04:05:43;;;;;;;21.38;6.30;;;;;;;12.33;100.00;101420.31;6280857;22;20092;-75
2023/08/09 04:08:10;;;;;;;48.65;6.63;;;;;;;12.35;100.00;101419.88;6228906;22;20024;-75
2023/08/09 04:10:36;;;;;;;56.17;7.00;;;;;;;12.32;100.00;101420.75;6279993;22;20452;-75
2023/08/09 04:13:03;;;;;;;20.70;5.72;;;;;;;12.30;100.00;101409.75;6281138;22;20095;-75
2023/08/09 04:15:29;;;;;;;15.32;6.28;;;;;;;12.33;100.00;101425.66;6280224;22;20020;-75
2023/08/09 04:17:57;;;;;;;11.90;5.63;;;;;;;12.34;100.00;101426.38;6281301;22;20016;-75
2023/08/09 04:20:23;;;;;;;12.27;5.95;;;;;;;12.38;100.00;101432.34;6227565;22;20040;-75
2023/08/09 04:22:50;;;;;;;20.30;6.03;;;;;;;12.37;100.00;101430.13;6254113;22;20016;-75
2023/08/09 04:25:17;;;;;;;6.47;5.88;;;;;;;12.38;100.00;101429.69;6280741;22;20016;-75
2023/08/09 04:27:44;;;;;;;12.15;6.18;;;;;;;12.38;100.00;101437.69;6253716;22;20031;-75
2023/08/09 04:30:12;;;;;;;23.63;6.53;;;;;;;12.40;100.00;101437.22;6281128;22;20016;-75
2023/08/09 04:32:39;;;;;;;21.77;6.32;;;;;;;12.40;100.00;101446.00;6280369;22;20012;-75
2023/08/09 04:35:09;;;;;;;6.32;5.82;;;;;;;12.42;100.00;101440.22;6280984;22;20070;-76
2023/08/09 04:37:36;;;;;;;8.35;5.93;;;;;;;12.43;100.00;101441.72;6280375;22;20421;-75
2023/08/09 04:40:07;;;;;;;8.65;6.07;;;;;;;12.44;100.00;101443.94;6280697;22;20013;-75
2023/08/09 04:42:34;;;;;;;9.63;6.20;;;;;;;12.44;100.00;101445.88;6280628;22;20442;-76
2023/08/09 04:45:01;;;;;;;23.00;6.30;;;;;;;12.44;100.00;101445.88;6281198;22;20012;-76
2023/08/09 04:47:27;;;;;;;11.32;6.38;;;;;;;12.42;100.00;101446.31;6280349;22;20020;-74
2023/08/09 04:49:54;;;;;;;17.60;6.10;;;;;;;12.44;100.00;101453.88;6281151;22;20023;-75
2023/08/09 04:52:20;;;;;;;6.45;5.95;;;;;;;12.44;100.00;101456.56;6279669;22;20026;-75
2023/08/09 04:54:47;;;;;;;15.93;6.65;;;;;;;12.45;100.00;101464.13;6280898;22;20020;-75
2023/08/09 04:57:14;;;;;;;28.58;6.70;;;;;;;12.50;100.00;101460.91;6281046;22;20016;-75
2023/08/09 04:59:40;;;;;;;9.45;6.68;;;;;;;12.55;100.00;101468.34;6280311;22;20036;-75
2023/08/09 05:02:07;;;;;;;29.65;6.85;;;;;;;12.57;100.00;101467.91;6281363;22;20013;-75
2023/08/09 05:04:33;;;;;;;13.52;7.03;;;;;;;12.61;100.00;101474.63;6253095;22;20016;-76
2023/08/09 05:07:02;;;;;;;16.63;6.53;;;;;;;12.63;100.00;101474.19;6280365;22;20020;-75
2023/08/09 05:09:30;;;;;;;14.93;7.10;;;;;;;12.64;100.00;101475.69;6280353;22;20493;-76
2023/08/09 05:11:58;;;;;;;11.70;6.60;;;;;;;12.67;100.00;101466.81;6281060;22;20012;-75
2023/08/09 05:14:25;;;;;;;8.60;7.00;;;;;;;12.72;100.00;101476.94;6279774;22;20429;-75
2023/08/09 05:16:55;;;;;;;16.80;6.80;;;;;;;12.79;100.00;101476.69;6281167;22;20024;-75
2023/08/09 05:19:22;;;;;;;21.30;6.57;;;;;;;12.82;100.00;101475.03;6280384;22;20475;-76
2023/08/09 05:21:48;;;;;;;15.40;7.03;;;;;;;12.84;100.00;101486.78;6280973;22;20066;-76
2023/08/09 05:24:15;;;;;;;8.05;6.55;;;;;;;12.88;100.00;101486.66;6281004;22;20012;-76
2023/08/09 05:26:42;;;;;;;12.23;6.70;;;;;;;12.89;100.00;101482.81;6280188;22;20016;-75
2023/08/09 05:29:08;;;;;;;10.48;7.43;;;;;;;12.92;100.00;101487.28;6281069;22;20354;-75
2023/08/09 05:31:35;;;;;;;10.57;7.38;;;;;;;12.98;100.00;101491.63;6252900;22;20016;-77
2023/08/09 05:34:01;;;;;;;14.35;7.28;;;;;;;13.04;100.00;101491.81;6253697;22;20148;-77
2023/08/09 05:36:28;;;;;;;14.77;7.68;;;;;;;13.07;100.00;101496.28;6226604;22;20084;-75
2023/08/09 05:38:54;;;;;;;7.80;7.18;;;;;;;13.14;100.00;101498.69;6228272;22;20012;-74
2023/08/09 05:41:21;;;;;;;7.85;7.13;;;;;;;13.21;100.00;101505.72;6279839;22;20088;-75
2023/08/09 05:43:48;;;;;;;16.27;7.75;;;;;;;13.27;100.00;101504.72;6280782;22;20012;-75
2023/08/09 05:46:14;;;;;;;14.73;7.07;;;;;;;13.33;100.00;101507.56;6253941;22;20716;-75
2023/08/09 05:48:41;;;;;;;11.15;7.85;;;;;;;13.37;100.00;101497.47;6253078;22;20019;-75
2023/08/09 05:51:07;;;;;;;12.90;7.70;;;;;;;13.45;100.00;101506.72;6280488;22;20012;-75
2023/08/09 05:53:34;;;;;;;12.27;7.63;;;;;;;13.52;100.00;101513.75;6279974;22;20016;-75
2023/08/09 05:56:00;;;;;;;7.95;7.35;;;;;;;13.54;100.00;101509.44;6280809;22;20024;-75
2023/08/09 05:58:28;;;;;;;10.25;7.72;;;;;;;13.58;100.00;101517.31;6280143;22;20012;-75
2023/08/09 06:00:56;;;;;;;14.13;7.65;;;;;;;13.63;100.00;101519.41;6280879;22;20012;-74
2023/08/09 06:03:23;;;;;;;11.07;8.35;;;;;;;13.69;100.00;101518.38;6252568;22;20394;-75
2023/08/09 06:05:50;;;;;;;20.33;7.82;;;;;;;13.74;100.00;101519.75;6280449;22;20016;-75
2023/08/09 06:08:16;;;;;;;11.40;8.48;;;;;;;13.72;100.00;101519.44;6280750;22;20043;-75
2023/08/09 06:10:43;;;;;;;12.70;7.90;;;;;;;13.77;100.00;101523.47;6280877;22;20012;-75
2023/08/09 06:13:25;;;;;;;11.35;8.57;;;;;;;13.83;100.00;101527.06;6280308;22;20063;-75
2023/08/09 06:15:57;;;;;;;8.88;8.07;;;;;;;13.86;100.00;101528.84;6280482;22;20465;-74
2023/08/09 06:18:24;;;;;;;12.38;8.70;;;;;;;13.90;100.00;101524.09;6280488;22;20456;-75
2023/08/09 06:20:51;;;;;;;9.48;8.55;;;;;;;13.95;100.00;101534.22;6280223;22;20074;-75
2023/08/09 06:23:18;;;;;;;11.80;9.27;;;;;;;14.00;100.00;101533.63;6280728;22;20420;-75
2023/08/09 06:25:46;;;;;;;11.25;8.00;;;;;;;14.09;100.00;101532.88;6280112;22;20055;-75
2023/08/09 06:28:13;;;;;;;9.82;8.75;;;;;;;14.27;100.00;101538.28;6281023;22;20391;-75
2023/08/09 06:30:40;;;;;;;10.82;9.73;;;;;;;14.33;100.00;101537.25;6280103;22;20528;-76
2023/08/09 06:33:07;;;;;;;13.32;9.68;;;;;;;14.41;100.00;101553.78;6280782;22;20066;-75
2023/08/09 06:35:34;;;;;;;11.48;9.45;;;;;;;14.48;100.00;101552.72;6279380;22;20102;-76
2023/08/09 06:38:01;;;;;;;11.68;9.52;;;;;;;14.55;100.00;101553.19;6280799;22;20012;-77
2023/08/09 06:40:41;;;;;;;12.98;9.63;;;;;;;14.72;100.00;101559.00;6252952;22;20020;-75
2023/08/09 06:43:07;;;;;;;10.18;9.20;;;;;;;14.84;100.00;101562.69;6280818;22;20430;-75
2023/08/09 06:45:34;;;;;;;11.50;10.27;;;;;;;14.94;100.00;101564.91;6252468;22;20020;-75
2023/08/09 06:48:01;;;;;;;11.32;9.75;;;;;;;15.10;100.00;101568.47;6280570;22;20017;-76
2023/08/09 06:50:27;;;;;;;10.90;9.77;;;;;;;15.20;100.00;101578.72;6279567;22;20135;-76
2023/08/09 06:52:54;;;;;;;9.63;8.70;;;;;;;15.20;100.00;101570.66;6280281;22;20434;-77
2023/08/09 06:55:21;;;;;;;10.15;9.15;;;;;;;15.35;100.00;101576.16;6253066;22;20075;-78
2023/08/09 06:57:47;;;;;;;11.43;9.05;;;;;;;15.46;100.00;101578.34;6280736;22;20515;-75
2023/08/09 07:00:17;;;;;;;12.80;8.93;;;;;;;15.47;100.00;101585.19;6253679;22;20020;-76
2023/08/09 07:02:48;;;;;;;9.55;8.55;;;;;;;15.49;100.00;101583.56;6228018;22;20379;-76
2023/08/09 07:05:21;;;;;;;13.38;8.23;;;;;;;15.61;100.00;101573.84;6280035;22;20367;-76
2023/08/09 07:07:54;;;;;;;9.13;8.15;;;;;;;15.65;100.00;101577.84;6253809;22;20474;-75
2023/08/09 07:10:24;;;;;;;12.23;8.85;;;;;;;15.73;100.00;101577.50;6279928;22;20062;-75
2023/08/09 07:12:52;;;;;;;10.88;7.97;;;;;;;16.02;100.00;101583.75;6280104;22;20062;-76
2023/08/09 07:15:19;;;;;;;9.48;8.55;;;;;;;16.30;100.00;101583.63;6279180;22;20024;-75
2023/08/09 07:17:46;;;;;;;9.15;8.35;;;;;;;16.24;100.00;101582.75;6252402;22;20016;-76
2023/08/09 07:20:14;;;;;;;9.65;8.00;;;;;;;16.28;100.00;101586.00;6280471;22;20043;-75
2023/08/09 07:22:41;;;;;;;8.35;7.68;;;;;;;16.40;100.00;101582.31;6279534;22;20019;-77
2023/08/09 07:25:09;;;;;;;12.65;7.78;;;;;;;16.46;100.00;101577.81;6280913;22;20016;-76
2023/08/09 07:27:43;;;;;;;8.23;7.43;;;;;;;16.38;100.00;101584.75;6279742;22;20016;-76
2023/08/09 07:30:12;;;;;;;9.73;7.63;;;;;;;16.39;100.00;101578.19;6280388;22;20114;-74
2023/08/09 07:32:38;;;;;;;7.97;6.85;;;;;;;16.44;100.00;101579.47;6278971;22;20031;-75
2023/08/09 07:35:07;;;;;;;9.52;7.57;;;;;;;16.47;100.00;101578.53;6280185;22;20055;-75
2023/08/09 07:37:35;;;;;;;7.70;7.00;;;;;;;16.76;100.00;101580.59;6281126;22;20016;-75
2023/08/09 07:40:06;;;;;;;7.07;6.38;;;;;;;17.00;100.00;101589.31;6281847;22;20023;-75
2023/08/09 07:42:35;;;;;;;11.73;6.82;;;;;;;17.43;100.00;101590.50;6281138;22;20042;-75
2023/08/09 07:45:03;;;;;;;8.38;6.50;;;;;;;17.66;100.00;101589.66;6281556;22;20074;-74
2023/08/09 07:47:29;;;;;;;10.95;6.32;;;;;;;18.03;100.00;101585.72;6280062;22;20012;-75
2023/08/09 07:49:56;;;;;;;7.43;6.72;;;;;;;18.11;100.00;101592.19;6281480;22;20016;-75
2023/08/09 07:52:23;;;;;;;6.53;5.70;;;;;;;18.25;98.74;101599.47;6280448;22;20055;-76
2023/08/09 07:54:49;;;;;;;5.95;5.55;;;;;;;18.27;99.36;101599.75;6282140;22;20026;-76
2023/08/09 07:57:16;;;;;;;7.43;6.10;;;;;;;18.31;97.47;101600.28;6281646;22;20023;-76
2023/08/09 07:59:42;;;;;;;8.00;5.80;;;;;;;18.27;97.20;101600.50;6281461;22;20446;-75
2023/08/09 08:02:09;;;;;;;6.82;6.18;;;;;;;18.16;97.94;101608.44;6281029;22;20012;-75
2023/08/09 08:04:36;;;;;;;7.28;6.57;;;;;;;18.36;97.08;101607.72;6280931;22;20016;-75
2023/08/09 08:07:03;;;;;;;6.70;5.47;;;;;;;18.79;96.41;101616.78;6281861;22;20446;-76
2023/08/09 08:09:32;;;;;;;6.28;5.13;;;;;;;19.13;94.28;101611.69;6280971;22;20018;-76
2023/08/09 08:11:59;;;;;;;5.70;4.70;;;;;;;19.13;92.05;101607.03;6228794;22;20094;-77
2023/08/09 08:14:38;;;;;;;5.00;4.60;;;;;;;18.97;93.17;101615.72;6280855;22;20024;-76
2023/08/09 08:17:06;;;;;;;5.00;4.60;;;;;;;18.89;92.21;101626.19;6253449;22;20483;-79
2023/08/09 08:19:32;;;;;;;7.10;4.55;;;;;;;18.97;92.55;101627.25;6280440;22;20016;-77
2023/08/09 08:21:59;;;;;;;4.72;4.22;;;;;;;19.07;90.29;101619.00;6254580;22;20046;-76
2023/08/09 08:24:26;;;;;;;6.13;4.00;;;;;;;19.14;89.95;101627.41;6280753;22;20016;-78
2023/08/09 08:26:54;;;;;;;6.53;4.47;;;;;;;19.01;90.51;101637.09;6281494;22;20012;-79
2023/08/09 08:29:22;;;;;;;4.70;4.30;;;;;;;19.07;89.62;101635.94;6280735;22;20032;-76
2023/08/09 08:31:51;;;;;;;4.57;4.18;;;;;;;19.15;88.86;101638.94;6280736;22;20019;-76
2023/08/09 08:34:21;;;;;;;5.57;4.30;;;;;;;19.24;88.63;101630.66;6281107;22;20107;-76
2023/08/09 08:36:48;;;;;;;6.55;3.88;;;;;;;19.39;88.66;101630.53;6228300;22;20451;-76
2023/08/09 08:39:15;;;;;;;4.40;3.00;;;;;;;19.76;87.52;101636.00;6254109;22;20016;-76
2023/08/09 08:41:42;;;;;;;6.07;3.50;;;;;;;19.98;85.67;101636.13;6280681;22;20023;-78
2023/08/09 08:44:11;;;;;;;5.68;3.22;;;;;;;20.08;84.60;101648.22;6281336;22;20433;-77
2023/08/09 08:46:38;;;;;;;3.80;2.75;;;;;;;19.99;83.75;101640.31;6280177;22;20611;-79
2023/08/09 08:49:06;;;;;;;6.20;3.00;;;;;;;20.23;83.05;101645.34;6281142;22;20010;-80
2023/08/09 08:51:34;;;;;;;3.15;2.40;;;;;;;20.44;84.35;101649.38;6252840;22;20021;-75
2023/08/09 08:54:01;;;;;;;5.55;2.40;;;;;;;20.61;81.23;101654.84;6280812;22;20123;-76
2023/08/09 08:56:29;;;;;;;6.82;2.78;;;;;;;20.55;80.85;101652.13;6280540;22;20052;-75
2023/08/09 08:58:58;;;;;;;4.32;2.50;;;;;;;20.52;80.44;101649.66;6280398;22;20022;-76
2023/08/09 09:01:25;;;;;;;5.30;2.85;;;;;;;20.68;79.00;101656.34;6280543;22;20083;-77
2023/08/09 09:03:52;;;;;;;2.58;2.38;;;;;;;20.74;78.40;101651.69;6281333;22;20070;-77
2023/08/09 09:06:20;;;;;;;7.28;4.15;;;;;;;20.60;76.36;101650.66;6280534;22;20016;-78
2023/08/09 09:08:55;;;;;;;4.50;3.00;;;;;;;20.35;77.82;101654.97;6280556;22;20016;-77
2023/08/09 09:11:22;;;;;;;3.05;2.80;;;;;;;20.39;80.23;101655.53;6280698;22;20019;-78
2023/08/09 09:13:50;;;;;;;3.13;2.20;;;;;;;20.63;77.31;101660.50;6280090;22;20016;-79
2023/08/09 09:16:19;;;;;;;2.33;2.17;;;;;;;20.96;73.62;101649.75;6281193;22;20016;-79
2023/08/09 09:18:48;;;;;;;4.45;2.17;;;;;;;21.03;73.59;101650.50;6281529;22;20454;-78
2023/08/09 09:21:17;;;;;;;2.63;2.13;;;;;;;20.87;74.38;101651.94;6281251;22;20047;-78
2023/08/09 09:23:45;;;;;;;3.55;2.33;;;;;;;20.60;73.79;101647.97;6253852;22;20026;-79
2023/08/09 09:26:18;;;;;;;2.90;1.90;;;;;;;20.38;74.67;101656.00;6281342;22;20023;-79
2023/08/09 09:28:47;;;;;;;3.40;1.85;;;;;;;20.30;75.94;101655.69;6280603;22;20023;-79
2023/08/09 09:31:17;;;;;;;4.70;2.08;;;;;;;20.33;75.44;101651.28;6253667;22;20012;-78
2023/08/09 09:33:54;;;;;;;3.08;2.00;;;;;;;20.54;74.06;101650.66;6254239;22;20398;-80
2023/08/09 09:36:20;;;;;;;2.53;2.35;;;;;;;21.17;74.57;101646.84;6280242;22;20020;-78
2023/08/09 09:38:56;;;;;;;2.55;2.20;;;;;;;21.64;74.19;101640.44;6281039;22;20066;-79
2023/08/09 09:41:22;;;;;;;4.30;2.55;;;;;;;21.88;69.36;101645.31;6280505;22;20020;-76
2023/08/09 09:43:50;;;;;;;6.97;2.53;;;;;;;21.92;69.41;101637.69;6280372;22;20416;-77
2023/08/09 09:46:22;;;;;;;3.60;3.28;;;;;;;21.55;68.93;101638.00;6253479;22;20027;-75
2023/08/09 09:49:03;;;;;;;2.80;2.60;;;;;;;21.17;71.83;101634.03;6281252;22;20016;-77
2023/08/09 09:51:29;;;;;;;4.63;2.83;;;;;;;21.01;72.95;101639.44;6279924;22;20017;-76
2023/08/09 09:53:56;;;;;;;5.28;2.67;;;;;;;20.81;72.86;101635.69;6280439;22;20111;-79
2023/08/09 09:56:23;;;;;;;2.63;2.50;;;;;;;20.63;74.52;101647.00;6280093;22;20016;-79
2023/08/09 09:58:49;;;;;;;6.07;2.88;;;;;;;20.56;73.11;101647.44;6252500;22;20048;-79
2023/08/09 10:01:20;;;;;;;3.35;2.75;;;;;;;20.57;74.01;101651.63;6228040;22;20024;-80
2023/08/09 10:03:51;;;;;;;2.83;2.65;;;;;;;20.98;73.54;101650.00;6253912;22;20020;-80
2023/08/09 10:06:27;;;;;;;4.40;2.40;;;;;;;21.04;72.28;101649.28;6253719;22;20040;-81
2023/08/09 10:08:56;;;;;;;3.42;3.00;;;;;;;20.74;71.38;101649.72;6254529;22;20091;-80
2023/08/09 10:11:25;;;;;;;3.55;2.63;;;;;;;20.59;71.74;101654.59;6279678;22;20425;-79
2023/08/09 10:13:53;;;;;;;4.47;2.67;;;;;;;20.34;72.21;101656.22;6281340;22;20055;-79
2023/08/09 10:16:22;;;;;;;8.38;2.70;;;;;;;20.29;72.43;101646.09;6280135;22;20348;-80
2023/08/09 10:19:10;;;;;;;4.07;3.00;;;;;;;20.36;71.92;101666.53;6281899;22;20103;-81
2023/08/09 10:21:40;;;;;;;2.38;2.28;;;;;;;20.39;72.69;101663.63;6280639;22;20016;-81
2023/08/09 10:24:18;;;;;;;3.35;2.47;;;;;;;20.48;73.29;101666.09;6281382;22;20090;-81
2023/08/09 10:26:49;;;;;;;2.55;2.35;;;;;;;20.59;74.36;101655.34;6280697;22;20016;-81
2023/08/09 10:29:23;;;;;;;2.50;2.40;;;;;;;20.89;72.20;101649.50;6281125;22;20012;-81
2023/08/09 10:31:51;;;;;;;3.33;2.10;;;;;;;21.19;70.87;101655.22;6281272;22;20515;-80
2023/08/09 10:34:42;;;;;;;5.18;2.45;;;;;;;21.19;69.79;101653.22;6280395;22;20016;-81
2023/08/09 10:37:12;;;;;;;7.45;2.22;;;;;;;21.15;69.06;101650.03;6281019;22;20020;-82
2023/08/09 10:39:39;;;;;;;4.80;2.60;;;;;;;21.03;68.75;101645.84;6280024;22;20012;-81
2023/08/09 10:42:09;;;;;;;9.15;2.38;;;;;;;20.83;68.71;101654.16;6280071;22;20081;-77
2023/08/09 10:44:44;;;;;;;2.58;2.30;;;;;;;20.59;69.59;101666.16;6252965;22;20017;-79
2023/08/09 10:47:24;;;;;;;2.20;2.10;;;;;;;20.53;69.78;101657.28;6281051;22;20016;-87
2023/08/09 10:49:51;;;;;;;2.13;2.00;;;;;;;20.46;70.46;101665.13;6281804;22;20414;-78
2023/08/09 10:52:28;;;;;;;3.05;1.70;;;;;;;20.73;70.67;101666.44;6280575;22;20083;-79
2023/08/09 10:55:21;;;;;;;3.72;2.00;;;;;;;21.36;69.92;101674.19;6281366;22;20027;-80
2023/08/09 10:57:49;;;;;;;3.80;1.73;;;;;;;21.77;65.08;101680.56;6279162;22;20008;-77
2023/08/09 11:00:18;;;;;;;5.40;2.20;;;;;;;21.44;62.51;101678.63;6254201;22;20013;-85
2023/08/09 11:02:49;;;;;;;2.85;2.53;;;;;;;21.24;62.91;101678.84;6280769;22;20023;-81
2023/08/09 11:05:19;;;;;;;1.98;1.88;;;;;;;21.24;62.58;101679.59;6280631;22;20155;-85
2023/08/09 11:07:56;;;;;;;3.40;1.77;;;;;;;21.06;62.71;101679.31;6280733;22;20427;-86
2023/08/09 11:10:36;;;;;;;3.17;1.90;;;;;;;20.80;61.54;101682.94;6279839;22;20016;-81
2023/08/09 11:13:08;;;;;;;2.37;1.83;;;;;;;20.72;63.55;101683.91;6281654;22;20012;-80
2023/08/09 11:15:36;;;;;;;1.52;1.52;;;;;;;20.46;62.55;101682.09;6281176;22;20026;-87
2023/08/09 11:18:03;;;;;;;3.83;1.85;;;;;;;20.89;62.49;101681.97;6255074;22;20063;-84
2023/08/09 11:20:29;;;;;;;6.65;3.30;;;;;;;21.56;61.21;101682.81;6253617;22;20066;-80
2023/08/09 11:22:58;;;;;;;7.57;2.20;;;;;;;22.05;55.81;101683.25;6281621;22;20023;-81